sensor_id;sensor_type;location;lat;lon;timestamp;P1;durP1;ratioP1;P2;durP2;ratioP2
18267;SDS011;9260;49.998;19.880;2023-04-24T00:07:14;219.10;;;87.87;;
18267;SDS011;9260;49.998;19.880;2023-04-24T00:17:20;219.07;;;89.70;;
18267;SDS011;9260;49.998;19.880;2023-04-24T00:27:23;223.57;;;85.80;;
18267;SDS011;9260;49.998;19.880;2023-04-24T00:37:28;217.03;;;86.67;;
18267;SDS011;9260;49.998;19.880;2023-04-24T00:47:32;216.27;;;88.10;;
18267;SDS011;9260;49.998;19.880;2023-04-24T00:57:37;213.27;;;86.40;;
18267;SDS011;9260;49.998;19.880;2023-04-24T01:07:41;219.40;;;87.77;;
18267;SDS011;9260;49.998;19.880;2023-04-24T01:17:51;210.63;;;85.23;;
18267;SDS011;9260;49.998;19.880;2023-04-24T01:27:56;210.03;;;85.53;;
18267;SDS011;9260;49.998;19.880;2023-04-24T01:38:00;210.67;;;86.17;;
18267;SDS011;9260;49.998;19.880;2023-04-24T01:48:05;211.90;;;84.07;;
18267;SDS011;9260;49.998;19.880;2023-04-24T01:58:08;209.83;;;84.47;;
18267;SDS011;9260;49.998;19.880;2023-04-24T02:08:13;210.03;;;83.13;;
18267;SDS011;9260;49.998;19.880;2023-04-24T02:18:17;210.57;;;86.47;;
18267;SDS011;9260;49.998;19.880;2023-04-24T02:28:21;210.40;;;86.00;;
18267;SDS011;9260;49.998;19.880;2023-04-24T02:38:25;208.60;;;82.90;;
18267;SDS011;9260;49.998;19.880;2023-04-24T02:48:30;215.47;;;84.30;;
18267;SDS011;9260;49.998;19.880;2023-04-24T02:58:33;206.67;;;82.73;;
18267;SDS011;9260;49.998;19.880;2023-04-24T03:08:38;217.67;;;84.47;;
18267;SDS011;9260;49.998;19.880;2023-04-24T03:18:41;205.97;;;84.03;;
18267;SDS011;9260;49.998;19.880;2023-04-24T03:28:46;212.50;;;85.47;;
18267;SDS011;9260;49.998;19.880;2023-04-24T03:38:50;217.30;;;85.93;;
18267;SDS011;9260;49.998;19.880;2023-04-24T03:49:04;214.87;;;84.20;;
18267;SDS011;9260;49.998;19.880;2023-04-24T03:59:11;222.53;;;85.70;;
18267;SDS011;9260;49.998;19.880;2023-04-24T04:09:20;221.10;;;86.83;;
18267;SDS011;9260;49.998;19.880;2023-04-24T04:19:24;214.80;;;92.10;;
18267;SDS011;9260;49.998;19.880;2023-04-24T04:29:29;207.73;;;83.53;;
18267;SDS011;9260;49.998;19.880;2023-04-24T04:39:35;212.87;;;88.23;;
18267;SDS011;9260;49.998;19.880;2023-04-24T04:49:51;208.57;;;85.73;;
18267;SDS011;9260;49.998;19.880;2023-04-24T04:59:58;214.17;;;86.97;;
18267;SDS011;9260;49.998;19.880;2023-04-24T05:10:16;221.43;;;87.30;;
18267;SDS011;9260;49.998;19.880;2023-04-24T05:20:20;220.47;;;86.90;;
18267;SDS011;9260;49.998;19.880;2023-04-24T05:30:26;218.90;;;90.30;;
18267;SDS011;9260;49.998;19.880;2023-04-24T05:40:30;219.43;;;88.00;;
18267;SDS011;9260;49.998;19.880;2023-04-24T05:50:35;229.80;;;91.10;;
18267;SDS011;9260;49.998;19.880;2023-04-24T06:00:39;220.77;;;90.57;;
18267;SDS011;9260;49.998;19.880;2023-04-24T06:10:45;230.33;;;94.50;;
18267;SDS011;9260;49.998;19.880;2023-04-24T06:20:51;232.03;;;98.87;;
18267;SDS011;9260;49.998;19.880;2023-04-24T06:30:56;225.13;;;99.90;;
18267;SDS011;9260;49.998;19.880;2023-04-24T06:40:59;229.30;;;104.93;;
18267;SDS011;9260;49.998;19.880;2023-04-24T06:51:06;220.90;;;108.33;;
18267;SDS011;9260;49.998;19.880;2023-04-24T07:01:09;217.37;;;102.17;;
18267;SDS011;9260;49.998;19.880;2023-04-24T07:11:14;218.30;;;108.90;;
18267;SDS011;9260;49.998;19.880;2023-04-24T07:21:17;220.03;;;112.43;;
18267;SDS011;9260;49.998;19.880;2023-04-24T07:31:22;218.13;;;119.07;;
18267;SDS011;9260;49.998;19.880;2023-04-24T07:41:26;216.52;;;120.93;;
18267;SDS011;9260;49.998;19.880;2023-04-24T07:51:31;219.95;;;126.32;;
18267;SDS011;9260;49.998;19.880;2023-04-24T08:01:39;215.50;;;127.70;;
18267;SDS011;9260;49.998;19.880;2023-04-24T08:11:44;213.45;;;127.80;;
18267;SDS011;9260;49.998;19.880;2023-04-24T08:21:47;214.65;;;131.55;;
18267;SDS011;9260;49.998;19.880;2023-04-24T08:31:52;208.57;;;126.43;;
18267;SDS011;9260;49.998;19.880;2023-04-24T08:41:57;204.43;;;125.85;;
18267;SDS011;9260;49.998;19.880;2023-04-24T08:52:08;215.70;;;133.48;;
18267;SDS011;9260;49.998;19.880;2023-04-24T09:02:14;208.43;;;134.90;;
18267;SDS011;9260;49.998;19.880;2023-04-24T09:12:20;205.55;;;130.27;;
18267;SDS011;9260;49.998;19.880;2023-04-24T09:22:23;196.20;;;130.68;;
18267;SDS011;9260;49.998;19.880;2023-04-24T09:32:28;201.93;;;141.85;;
18267;SDS011;9260;49.998;19.880;2023-04-24T09:42:33;209.70;;;147.80;;
18267;SDS011;9260;49.998;19.880;2023-04-24T09:52:40;192.15;;;141.50;;
18267;SDS011;9260;49.998;19.880;2023-04-24T10:02:45;186.68;;;139.05;;
18267;SDS011;9260;49.998;19.880;2023-04-24T10:12:55;198.68;;;143.57;;
18267;SDS011;9260;49.998;19.880;2023-04-24T10:22:59;193.32;;;138.02;;
18267;SDS011;9260;49.998;19.880;2023-04-24T10:33:05;199.45;;;137.45;;
18267;SDS011;9260;49.998;19.880;2023-04-24T10:43:10;191.90;;;137.07;;
18267;SDS011;9260;49.998;19.880;2023-04-24T10:53:22;197.20;;;143.82;;
18267;SDS011;9260;49.998;19.880;2023-04-24T11:03:28;195.00;;;140.10;;
18267;SDS011;9260;49.998;19.880;2023-04-24T11:24:24;198.07;;;147.38;;
18267;SDS011;9260;49.998;19.880;2023-04-24T11:34:31;194.75;;;142.93;;
18267;SDS011;9260;49.998;19.880;2023-04-24T11:44:35;189.70;;;138.15;;
18267;SDS011;9260;49.998;19.880;2023-04-24T11:54:47;185.57;;;133.00;;
18267;SDS011;9260;49.998;19.880;2023-04-24T12:04:53;182.73;;;136.35;;
18267;SDS011;9260;49.998;19.880;2023-04-24T12:14:58;196.50;;;147.18;;
18267;SDS011;9260;49.998;19.880;2023-04-24T12:25:03;207.70;;;148.45;;
18267;SDS011;9260;49.998;19.880;2023-04-24T12:35:09;220.35;;;141.73;;
18267;SDS011;9260;49.998;19.880;2023-04-24T12:45:14;223.65;;;129.82;;
18267;SDS011;9260;49.998;19.880;2023-04-24T12:55:19;230.98;;;124.82;;
18267;SDS011;9260;49.998;19.880;2023-04-24T13:05:23;225.07;;;123.88;;
18267;SDS011;9260;49.998;19.880;2023-04-24T13:15:28;225.00;;;119.72;;
18267;SDS011;9260;49.998;19.880;2023-04-24T13:25:34;213.70;;;108.03;;
18267;SDS011;9260;49.998;19.880;2023-04-24T13:35:41;220.60;;;109.47;;
18267;SDS011;9260;49.998;19.880;2023-04-24T13:45:45;217.63;;;112.17;;
18267;SDS011;9260;49.998;19.880;2023-04-24T13:55:50;222.30;;;105.33;;
18267;SDS011;9260;49.998;19.880;2023-04-24T14:05:53;220.07;;;107.53;;
18267;SDS011;9260;49.998;19.880;2023-04-24T14:15:58;217.73;;;105.80;;
18267;SDS011;9260;49.998;19.880;2023-04-24T14:26:02;223.63;;;101.60;;
18267;SDS011;9260;49.998;19.880;2023-04-24T14:36:07;217.07;;;105.93;;
18267;SDS011;9260;49.998;19.880;2023-04-24T14:46:10;231.47;;;103.87;;
18267;SDS011;9260;49.998;19.880;2023-04-24T14:56:15;224.50;;;105.50;;
18267;SDS011;9260;49.998;19.880;2023-04-24T15:06:18;223.53;;;104.83;;
18267;SDS011;9260;49.998;19.880;2023-04-24T15:16:24;223.77;;;103.77;;
18267;SDS011;9260;49.998;19.880;2023-04-24T15:26:28;234.07;;;113.40;;
18267;SDS011;9260;49.998;19.880;2023-04-24T15:36:33;230.40;;;107.80;;
18267;SDS011;9260;49.998;19.880;2023-04-24T15:46:36;228.50;;;102.67;;
18267;SDS011;9260;49.998;19.880;2023-04-24T15:56:41;227.83;;;100.43;;
18267;SDS011;9260;49.998;19.880;2023-04-24T16:06:45;233.97;;;102.37;;
18267;SDS011;9260;49.998;19.880;2023-04-24T16:16:50;236.13;;;100.87;;
18267;SDS011;9260;49.998;19.880;2023-04-24T16:26:56;231.00;;;104.93;;
18267;SDS011;9260;49.998;19.880;2023-04-24T16:37:01;228.07;;;109.20;;
18267;SDS011;9260;49.998;19.880;2023-04-24T16:47:04;223.00;;;100.33;;
18267;SDS011;9260;49.998;19.880;2023-04-24T16:57:09;213.60;;;90.57;;
18267;SDS011;9260;49.998;19.880;2023-04-24T17:07:13;221.80;;;96.63;;
18267;SDS011;9260;49.998;19.880;2023-04-24T17:17:19;217.70;;;93.50;;
18267;SDS011;9260;49.998;19.880;2023-04-24T17:27:23;226.20;;;100.30;;
18267;SDS011;9260;49.998;19.880;2023-04-24T17:37:28;227.37;;;100.67;;
18267;SDS011;9260;49.998;19.880;2023-04-24T17:47:32;220.60;;;95.00;;
18267;SDS011;9260;49.998;19.880;2023-04-24T17:57:37;221.00;;;99.23;;
18267;SDS011;9260;49.998;19.880;2023-04-24T18:07:40;230.30;;;100.30;;
18267;SDS011;9260;49.998;19.880;2023-04-24T18:17:45;226.37;;;101.23;;
18267;SDS011;9260;49.998;19.880;2023-04-24T18:27:49;226.40;;;96.93;;
18267;SDS011;9260;49.998;19.880;2023-04-24T18:37:53;346.33;;;99.93;;
18267;SDS011;9260;49.998;19.880;2023-04-24T18:47:57;216.23;;;90.37;;
18267;SDS011;9260;49.998;19.880;2023-04-24T18:58:02;217.73;;;90.43;;
18267;SDS011;9260;49.998;19.880;2023-04-24T19:08:05;216.30;;;90.80;;
18267;SDS011;9260;49.998;19.880;2023-04-24T19:18:10;216.33;;;90.87;;
18267;SDS011;9260;49.998;19.880;2023-04-24T19:28:14;220.23;;;91.87;;
18267;SDS011;9260;49.998;19.880;2023-04-24T19:38:19;218.47;;;92.50;;
18267;SDS011;9260;49.998;19.880;2023-04-24T19:48:23;222.83;;;94.20;;
18267;SDS011;9260;49.998;19.880;2023-04-24T19:58:32;221.13;;;93.53;;
18267;SDS011;9260;49.998;19.880;2023-04-24T20:08:36;222.93;;;91.50;;
18267;SDS011;9260;49.998;19.880;2023-04-24T20:18:41;221.93;;;95.73;;
18267;SDS011;9260;49.998;19.880;2023-04-24T20:28:45;229.13;;;96.33;;
18267;SDS011;9260;49.998;19.880;2023-04-24T20:38:50;223.60;;;94.33;;
18267;SDS011;9260;49.998;19.880;2023-04-24T20:48:53;230.20;;;96.63;;
18267;SDS011;9260;49.998;19.880;2023-04-24T20:58:58;229.93;;;97.23;;
18267;SDS011;9260;49.998;19.880;2023-04-24T21:09:02;241.53;;;102.83;;
18267;SDS011;9260;49.998;19.880;2023-04-24T21:19:07;237.43;;;98.97;;
18267;SDS011;9260;49.998;19.880;2023-04-24T21:29:11;238.50;;;101.40;;
18267;SDS011;9260;49.998;19.880;2023-04-24T21:39:15;233.27;;;100.13;;
18267;SDS011;9260;49.998;19.880;2023-04-24T21:49:19;237.57;;;104.97;;
18267;SDS011;9260;49.998;19.880;2023-04-24T21:59:24;232.27;;;102.93;;
18267;SDS011;9260;49.998;19.880;2023-04-24T22:09:27;235.13;;;104.13;;
18267;SDS011;9260;49.998;19.880;2023-04-24T22:19:32;240.20;;;106.73;;
18267;SDS011;9260;49.998;19.880;2023-04-24T22:29:35;237.13;;;107.50;;
18267;SDS011;9260;49.998;19.880;2023-04-24T22:39:40;239.23;;;103.97;;
18267;SDS011;9260;49.998;19.880;2023-04-24T22:49:43;233.20;;;103.60;;
18267;SDS011;9260;49.998;19.880;2023-04-24T22:59:49;227.73;;;98.20;;
18267;SDS011;9260;49.998;19.880;2023-04-24T23:09:52;222.90;;;96.70;;
18267;SDS011;9260;49.998;19.880;2023-04-24T23:19:58;227.77;;;95.63;;
18267;SDS011;9260;49.998;19.880;2023-04-24T23:30:03;227.43;;;94.47;;
18267;SDS011;9260;49.998;19.880;2023-04-24T23:40:09;225.47;;;97.43;;
18267;SDS011;9260;49.998;19.880;2023-04-24T23:50:14;221.50;;;91.90;;
